MMTG/TGZ METAR and TAF weather

Enter ICAO airport designator
Station Type Date Time Source
MMTG METAR 2021/03/06 04:43 UTC NOAA

MMTG 060443Z 33006KT 6SM SCT300 24/19 A2994 RMK 8/002 FIRE W FU HZ


Station Type Date Time Source
MMTG Decoded METAR 2021/03/06 04:43 UTC NOAA

Tuxtla Gutierrez, Chis., Mexico (MMTG) 16-45N 093-07W
Mar 05, 2021 - 11:43 PM EST / 2021.03.06 0443 UTC
Wind: from the NNW (330 degrees) at 7 MPH (6 KT):0
Visibility: 6 mile(s):0
Sky conditions: partly cloudy
Temperature: 75 F (24 C)
Dew Point: 66 F (19 C)
Relative Humidity: 73%
Pressure (altimeter): 29.94 in. Hg (1013 hPa)
ob: MMTG 060443Z 33006KT 6SM SCT300 24/19 A2994 RMK 8/002 FIRE W FU HZ
cycle: 4

Station Type Date Time Source
MMTG TAF 2021/03/06 06:49 UTC NOAA

TAF MMTG 060441Z 0606/0706 33005KT 6SM HZ SCT020 SCT300
TEMPO 0612/0615 1SM BR BKN010
FM061800 03010G20KT 6SM HZ SCT030
TEMPO 0622/0702 5SM RA BKN015

Example: see airport list